CYWJ

Déline Airport

Déline, Northwest Territories, Canada
METAR CYWJ 240000Z 26008KT 20SM SCT024 BKN070 M06/M10 A2962 RMK SC3AC3 -6.4/-11.6/0/49 SNW CVR/MUCH LOOSE LAST STFD OBS/NXT 241400 UTC SLP051
Observed Flight Rules
Feb-24 @ 00:00 UTC (12 hours ago) Visual Flight Rules
Wind Visibility Clouds
260° at 8 knots 20 miles
  • Scattered at 2,400' AGL
  • Broken at 7,000' AGL
Temperatures Readings
Current -6°C / 21°F
Dewpoint -10°C / 14°F
Humidity 74%
Altimeter 29.62" Hg
Pressure 1005.1 hPa
Elevation 176
METAR CYWJ 240000Z 26008KT 20SM SCT024 BKN070 M06/M10 A2962 RMK SC3AC3 -6.4/-11.6/0/49 SNW CVR/MUCH LOOSE LAST STFD OBS/NXT 241400 UTC SLP051
Observed Flight Rules
Feb-24 @ 00:00 UTC
(12 hours ago)
VFR
Wind Visibility
260° at 8 knots 20 miles
Clouds
  • Scattered at 2,400' AGL
  • Broken at 7,000' AGL
Temperature Dewpoint
-6°C / 21°F -10°C / 14°F
Humidity Altimeter Pressure
74% 29.62" Hg 1005.1 hPa